sensor_id;sensor_type;location;lat;lon;timestamp;pressure;altitude;pressure_sealevel;temperature;humidity
15670;BME280;18524;45.190;5.732;2023-04-19T00:00:58;99330.19;;;13.22;100.00
15670;BME280;18524;45.190;5.732;2023-04-19T00:05:50;99333.91;;;13.20;100.00
15670;BME280;18524;45.190;5.732;2023-04-19T00:10:43;99335.66;;;13.09;100.00
15670;BME280;18524;45.190;5.732;2023-04-19T00:15:33;99331.78;;;13.04;100.00
15670;BME280;18524;45.190;5.732;2023-04-19T00:20:24;99332.59;;;13.04;100.00
15670;BME280;18524;45.190;5.732;2023-04-19T00:25:14;99331.78;;;13.04;100.00
15670;BME280;18524;45.190;5.732;2023-04-19T00:30:05;99338.09;;;12.92;100.00
15670;BME280;18524;45.190;5.732;2023-04-19T00:34:55;99331.19;;;13.00;100.00
15670;BME280;18524;45.190;5.732;2023-04-19T00:39:46;99328.22;;;12.84;100.00
15670;BME280;18524;45.190;5.732;2023-04-19T00:44:36;99332.94;;;12.80;100.00
15670;BME280;18524;45.190;5.732;2023-04-19T00:49:27;99332.50;;;12.75;100.00
15670;BME280;18524;45.190;5.732;2023-04-19T00:54:18;99322.81;;;12.76;100.00
15670;BME280;18524;45.190;5.732;2023-04-19T00:59:08;99329.19;;;12.73;100.00
15670;BME280;18524;45.190;5.732;2023-04-19T01:04:01;99318.91;;;12.70;100.00
15670;BME280;18524;45.190;5.732;2023-04-19T01:08:52;99314.75;;;12.68;100.00
15670;BME280;18524;45.190;5.732;2023-04-19T01:13:42;99316.56;;;12.67;100.00
15670;BME280;18524;45.190;5.732;2023-04-19T01:18:33;99318.56;;;12.54;100.00
15670;BME280;18524;45.190;5.732;2023-04-19T01:23:26;99325.47;;;12.55;100.00
15670;BME280;18524;45.190;5.732;2023-04-19T01:28:16;99326.00;;;12.49;100.00
15670;BME280;18524;45.190;5.732;2023-04-19T01:33:07;99315.56;;;12.38;100.00
15670;BME280;18524;45.190;5.732;2023-04-19T01:37:57;99316.94;;;12.32;100.00
15670;BME280;18524;45.190;5.732;2023-04-19T01:42:48;99315.28;;;12.31;100.00
15670;BME280;18524;45.190;5.732;2023-04-19T01:47:38;99304.34;;;12.36;100.00
15670;BME280;18524;45.190;5.732;2023-04-19T01:52:28;99308.72;;;12.26;100.00
15670;BME280;18524;45.190;5.732;2023-04-19T01:57:19;99305.38;;;12.24;100.00
15670;BME280;18524;45.190;5.732;2023-04-19T02:02:09;99308.34;;;11.88;100.00
15670;BME280;18524;45.190;5.732;2023-04-19T02:06:59;99313.25;;;11.93;100.00
15670;BME280;18524;45.190;5.732;2023-04-19T02:11:50;99317.56;;;11.83;100.00
15670;BME280;18524;45.190;5.732;2023-04-19T02:16:40;99318.31;;;11.74;100.00
15670;BME280;18524;45.190;5.732;2023-04-19T02:21:31;99328.03;;;11.62;100.00
15670;BME280;18524;45.190;5.732;2023-04-19T02:26:21;99336.44;;;11.45;100.00
15670;BME280;18524;45.190;5.732;2023-04-19T02:31:13;99328.31;;;11.48;100.00
15670;BME280;18524;45.190;5.732;2023-04-19T02:36:04;99332.13;;;11.55;100.00
15670;BME280;18524;45.190;5.732;2023-04-19T02:40:54;99327.22;;;11.50;100.00
15670;BME280;18524;45.190;5.732;2023-04-19T02:45:44;99316.13;;;11.47;100.00
15670;BME280;18524;45.190;5.732;2023-04-19T02:50:36;99325.19;;;11.11;100.00
15670;BME280;18524;45.190;5.732;2023-04-19T02:55:27;99322.34;;;11.03;100.00
15670;BME280;18524;45.190;5.732;2023-04-19T03:00:17;99321.00;;;11.08;100.00
15670;BME280;18524;45.190;5.732;2023-04-19T03:05:09;99320.53;;;11.03;100.00
15670;BME280;18524;45.190;5.732;2023-04-19T03:09:59;99316.97;;;11.04;100.00
15670;BME280;18524;45.190;5.732;2023-04-19T03:14:49;99319.94;;;11.11;100.00
15670;BME280;18524;45.190;5.732;2023-04-19T03:19:40;99325.56;;;11.17;100.00
15670;BME280;18524;45.190;5.732;2023-04-19T03:24:30;99332.00;;;11.02;100.00
15670;BME280;18524;45.190;5.732;2023-04-19T03:29:21;99325.69;;;10.93;100.00
15670;BME280;18524;45.190;5.732;2023-04-19T03:34:11;99324.97;;;11.03;100.00
15670;BME280;18524;45.190;5.732;2023-04-19T03:39:02;99331.03;;;11.03;100.00
15670;BME280;18524;45.190;5.732;2023-04-19T03:43:53;99326.88;;;11.01;100.00
15670;BME280;18524;45.190;5.732;2023-04-19T03:48:43;99321.50;;;11.02;100.00
15670;BME280;18524;45.190;5.732;2023-04-19T03:53:34;99323.28;;;11.02;100.00
15670;BME280;18524;45.190;5.732;2023-04-19T03:58:24;99325.34;;;10.98;100.00
15670;BME280;18524;45.190;5.732;2023-04-19T04:03:15;99332.38;;;10.98;100.00
15670;BME280;18524;45.190;5.732;2023-04-19T04:08:05;99330.56;;;10.98;100.00
15670;BME280;18524;45.190;5.732;2023-04-19T04:12:56;99332.16;;;10.89;100.00
15670;BME280;18524;45.190;5.732;2023-04-19T04:17:46;99332.84;;;10.91;100.00
15670;BME280;18524;45.190;5.732;2023-04-19T04:22:40;99325.09;;;10.90;100.00
15670;BME280;18524;45.190;5.732;2023-04-19T04:27:31;99335.81;;;10.76;100.00
15670;BME280;18524;45.190;5.732;2023-04-19T04:32:22;99345.50;;;10.75;100.00
15670;BME280;18524;45.190;5.732;2023-04-19T04:37:12;99344.09;;;10.82;100.00
15670;BME280;18524;45.190;5.732;2023-04-19T04:42:03;99356.72;;;10.88;100.00
15670;BME280;18524;45.190;5.732;2023-04-19T04:46:54;99353.88;;;10.80;100.00
15670;BME280;18524;45.190;5.732;2023-04-19T04:51:44;99354.34;;;10.85;100.00
15670;BME280;18524;45.190;5.732;2023-04-19T04:56:35;99357.06;;;10.95;100.00
15670;BME280;18524;45.190;5.732;2023-04-19T05:01:25;99362.31;;;10.84;100.00
15670;BME280;18524;45.190;5.732;2023-04-19T05:06:16;99356.47;;;10.91;100.00
15670;BME280;18524;45.190;5.732;2023-04-19T05:11:06;99361.59;;;10.71;100.00
15670;BME280;18524;45.190;5.732;2023-04-19T05:15:57;99365.75;;;10.62;100.00
15670;BME280;18524;45.190;5.732;2023-04-19T05:20:48;99366.00;;;10.59;100.00
15670;BME280;18524;45.190;5.732;2023-04-19T05:25:38;99366.25;;;10.67;100.00
15670;BME280;18524;45.190;5.732;2023-04-19T05:30:28;99374.22;;;10.65;100.00
15670;BME280;18524;45.190;5.732;2023-04-19T05:35:19;99373.16;;;10.90;100.00
15670;BME280;18524;45.190;5.732;2023-04-19T05:40:09;99371.94;;;11.28;100.00
15670;BME280;18524;45.190;5.732;2023-04-19T05:45:00;99375.28;;;11.73;100.00
15670;BME280;18524;45.190;5.732;2023-04-19T05:49:51;99371.97;;;12.03;100.00
15670;BME280;18524;45.190;5.732;2023-04-19T05:54:41;99368.22;;;12.47;100.00
15670;BME280;18524;45.190;5.732;2023-04-19T05:59:33;99368.66;;;12.73;100.00
15670;BME280;18524;45.190;5.732;2023-04-19T06:04:23;99365.06;;;12.74;98.22
15670;BME280;18524;45.190;5.732;2023-04-19T06:09:13;99359.56;;;13.27;97.39
15670;BME280;18524;45.190;5.732;2023-04-19T06:14:04;99366.09;;;13.33;97.41
15670;BME280;18524;45.190;5.732;2023-04-19T06:18:55;99364.34;;;13.62;94.11
15670;BME280;18524;45.190;5.732;2023-04-19T06:23:46;99366.72;;;14.04;94.13
15670;BME280;18524;45.190;5.732;2023-04-19T06:28:36;99358.50;;;14.07;92.02
15670;BME280;18524;45.190;5.732;2023-04-19T06:33:26;99366.44;;;13.78;91.64
15670;BME280;18524;45.190;5.732;2023-04-19T06:38:17;99355.00;;;14.45;88.93
15670;BME280;18524;45.190;5.732;2023-04-19T06:43:07;99354.59;;;14.50;88.04
15670;BME280;18524;45.190;5.732;2023-04-19T06:47:57;99349.00;;;14.99;87.45
15670;BME280;18524;45.190;5.732;2023-04-19T06:52:48;99346.88;;;15.48;83.26
15670;BME280;18524;45.190;5.732;2023-04-19T06:57:38;99339.25;;;15.27;83.78
15670;BME280;18524;45.190;5.732;2023-04-19T07:02:29;99339.94;;;15.29;83.59
15670;BME280;18524;45.190;5.732;2023-04-19T07:07:19;99336.84;;;15.52;82.42
15670;BME280;18524;45.190;5.732;2023-04-19T07:12:09;99331.81;;;15.58;81.45
15670;BME280;18524;45.190;5.732;2023-04-19T07:17:03;99329.09;;;15.86;79.99
15670;BME280;18524;45.190;5.732;2023-04-19T07:21:54;99326.50;;;16.12;77.22
15670;BME280;18524;45.190;5.732;2023-04-19T07:26:44;99325.09;;;16.25;76.90
15670;BME280;18524;45.190;5.732;2023-04-19T07:31:34;99325.59;;;16.29;76.31
15670;BME280;18524;45.190;5.732;2023-04-19T07:36:25;99317.41;;;17.00;74.78
15670;BME280;18524;45.190;5.732;2023-04-19T07:41:16;99311.75;;;17.62;71.88
15670;BME280;18524;45.190;5.732;2023-04-19T07:46:12;99314.94;;;17.73;70.23
15670;BME280;18524;45.190;5.732;2023-04-19T07:51:13;99314.63;;;17.76;69.34
15670;BME280;18524;45.190;5.732;2023-04-19T07:56:05;99299.03;;;17.81;68.81
15670;BME280;18524;45.190;5.732;2023-04-19T08:00:56;99306.28;;;18.20;67.03
15670;BME280;18524;45.190;5.732;2023-04-19T08:05:46;99290.94;;;18.55;64.71
15670;BME280;18524;45.190;5.732;2023-04-19T08:10:37;99285.63;;;18.55;65.99
15670;BME280;18524;45.190;5.732;2023-04-19T08:15:27;99290.03;;;18.31;65.65
15670;BME280;18524;45.190;5.732;2023-04-19T08:20:18;99278.19;;;18.66;64.17
15670;BME280;18524;45.190;5.732;2023-04-19T08:25:08;99278.88;;;18.91;61.54
15670;BME280;18524;45.190;5.732;2023-04-19T08:29:59;99282.09;;;18.79;60.38
15670;BME280;18524;45.190;5.732;2023-04-19T08:34:49;99271.84;;;17.88;61.54
15670;BME280;18524;45.190;5.732;2023-04-19T08:39:40;99261.75;;;18.47;62.00
15670;BME280;18524;45.190;5.732;2023-04-19T08:44:31;99254.78;;;18.46;61.07
15670;BME280;18524;45.190;5.732;2023-04-19T08:49:21;99262.94;;;18.44;60.46
15670;BME280;18524;45.190;5.732;2023-04-19T08:54:12;99243.47;;;18.68;60.18
15670;BME280;18524;45.190;5.732;2023-04-19T08:59:03;99237.94;;;18.78;58.95
15670;BME280;18524;45.190;5.732;2023-04-19T09:03:53;99237.81;;;19.25;58.53
15670;BME280;18524;45.190;5.732;2023-04-19T09:08:44;99224.28;;;19.80;56.78
15670;BME280;18524;45.190;5.732;2023-04-19T09:13:34;99226.06;;;19.65;58.63
15670;BME280;18524;45.190;5.732;2023-04-19T09:18:27;99215.34;;;20.11;56.34
15670;BME280;18524;45.190;5.732;2023-04-19T09:23:17;99213.63;;;20.47;54.61
15670;BME280;18524;45.190;5.732;2023-04-19T09:28:12;99205.47;;;20.70;51.43
15670;BME280;18524;45.190;5.732;2023-04-19T09:33:03;99191.81;;;20.95;50.81
15670;BME280;18524;45.190;5.732;2023-04-19T09:37:59;99177.06;;;21.35;49.58
15670;BME280;18524;45.190;5.732;2023-04-19T09:42:50;99175.81;;;21.87;49.09
15670;BME280;18524;45.190;5.732;2023-04-19T09:47:41;99164.41;;;21.99;48.52
15670;BME280;18524;45.190;5.732;2023-04-19T09:52:32;99165.31;;;22.06;48.01
15670;BME280;18524;45.190;5.732;2023-04-19T09:57:24;99150.16;;;22.20;47.32
15670;BME280;18524;45.190;5.732;2023-04-19T10:02:16;99140.53;;;22.73;46.16
15670;BME280;18524;45.190;5.732;2023-04-19T10:07:07;99127.19;;;22.87;45.05
15670;BME280;18524;45.190;5.732;2023-04-19T10:11:58;99128.22;;;22.86;46.20
15670;BME280;18524;45.190;5.732;2023-04-19T10:16:50;99120.44;;;23.37;46.28
15670;BME280;18524;45.190;5.732;2023-04-19T10:21:41;99113.63;;;23.87;44.75
15670;BME280;18524;45.190;5.732;2023-04-19T10:31:57;99099.81;;;23.90;42.84
15670;BME280;18524;45.190;5.732;2023-04-19T10:36:48;99093.88;;;24.40;43.37
15670;BME280;18524;45.190;5.732;2023-04-19T10:41:57;99096.22;;;24.68;41.74
15670;BME280;18524;45.190;5.732;2023-04-19T10:46:48;99080.69;;;25.08;42.31
15670;BME280;18524;45.190;5.732;2023-04-19T10:51:39;99070.78;;;25.76;43.88
15670;BME280;18524;45.190;5.732;2023-04-19T11:01:40;99054.31;;;26.21;39.41
15670;BME280;18524;45.190;5.732;2023-04-19T11:06:32;99044.25;;;26.16;38.62
15670;BME280;18524;45.190;5.732;2023-04-19T11:11:23;99029.66;;;26.42;38.82
15670;BME280;18524;45.190;5.732;2023-04-19T11:16:16;99026.09;;;26.72;36.24
15670;BME280;18524;45.190;5.732;2023-04-19T11:21:11;99016.00;;;27.09;36.94
15670;BME280;18524;45.190;5.732;2023-04-19T11:26:02;99009.22;;;27.30;37.04
15670;BME280;18524;45.190;5.732;2023-04-19T11:30:53;99000.78;;;27.61;34.99
15670;BME280;18524;45.190;5.732;2023-04-19T11:35:44;98989.19;;;27.37;34.33
15670;BME280;18524;45.190;5.732;2023-04-19T11:40:34;98993.28;;;27.63;35.63
15670;BME280;18524;45.190;5.732;2023-04-19T11:45:32;98975.63;;;27.84;33.85
15670;BME280;18524;45.190;5.732;2023-04-19T11:50:38;98962.34;;;28.23;35.94
15670;BME280;18524;45.190;5.732;2023-04-19T11:55:32;98949.41;;;28.53;34.49
15670;BME280;18524;45.190;5.732;2023-04-19T12:00:29;98936.34;;;28.95;34.00
15670;BME280;18524;45.190;5.732;2023-04-19T12:05:19;98928.53;;;29.16;33.71
15670;BME280;18524;45.190;5.732;2023-04-19T12:10:11;98924.06;;;28.38;29.17
15670;BME280;18524;45.190;5.732;2023-04-19T12:15:01;98910.94;;;27.84;30.52
15670;BME280;18524;45.190;5.732;2023-04-19T12:19:51;98917.44;;;27.20;32.66
15670;BME280;18524;45.190;5.732;2023-04-19T12:24:42;98900.47;;;27.59;32.44
15670;BME280;18524;45.190;5.732;2023-04-19T12:29:33;98890.56;;;28.05;31.95
15670;BME280;18524;45.190;5.732;2023-04-19T12:34:23;98882.47;;;27.88;30.84
15670;BME280;18524;45.190;5.732;2023-04-19T12:39:14;98889.50;;;27.89;32.90
15670;BME280;18524;45.190;5.732;2023-04-19T12:44:04;98885.94;;;27.72;29.52
15670;BME280;18524;45.190;5.732;2023-04-19T12:48:54;98862.97;;;27.69;33.31
15670;BME280;18524;45.190;5.732;2023-04-19T12:53:48;98865.00;;;28.08;33.44
15670;BME280;18524;45.190;5.732;2023-04-19T12:58:39;98853.22;;;28.14;33.05
15670;BME280;18524;45.190;5.732;2023-04-19T13:03:29;98849.31;;;27.88;31.54
15670;BME280;18524;45.190;5.732;2023-04-19T13:08:22;98823.50;;;27.92;29.03
15670;BME280;18524;45.190;5.732;2023-04-19T13:13:12;98811.91;;;27.91;28.59
15670;BME280;18524;45.190;5.732;2023-04-19T13:18:02;98808.00;;;27.70;31.40
15670;BME280;18524;45.190;5.732;2023-04-19T13:22:53;98793.19;;;27.56;30.87
15670;BME280;18524;45.190;5.732;2023-04-19T13:27:43;98804.16;;;27.38;30.97
15670;BME280;18524;45.190;5.732;2023-04-19T13:32:35;98786.66;;;27.12;31.03
15670;BME280;18524;45.190;5.732;2023-04-19T13:37:25;98780.50;;;27.00;29.23
15670;BME280;18524;45.190;5.732;2023-04-19T13:42:17;98782.53;;;26.69;30.20
15670;BME280;18524;45.190;5.732;2023-04-19T13:47:08;98777.06;;;26.53;31.72
15670;BME280;18524;45.190;5.732;2023-04-19T13:51:58;98768.91;;;26.47;34.33
15670;BME280;18524;45.190;5.732;2023-04-19T13:56:48;98763.50;;;26.36;35.33
15670;BME280;18524;45.190;5.732;2023-04-19T14:01:39;98766.63;;;26.21;35.72
15670;BME280;18524;45.190;5.732;2023-04-19T14:06:30;98751.09;;;26.23;39.64
15670;BME280;18524;45.190;5.732;2023-04-19T14:11:21;98746.44;;;26.07;37.59
15670;BME280;18524;45.190;5.732;2023-04-19T14:16:13;98732.25;;;25.88;33.44
15670;BME280;18524;45.190;5.732;2023-04-19T14:21:03;98729.53;;;25.65;33.34
15670;BME280;18524;45.190;5.732;2023-04-19T14:25:54;98719.59;;;25.65;34.99
15670;BME280;18524;45.190;5.732;2023-04-19T14:30:44;98707.88;;;25.60;34.24
15670;BME280;18524;45.190;5.732;2023-04-19T14:35:35;98717.81;;;25.59;32.03
15670;BME280;18524;45.190;5.732;2023-04-19T14:40:25;98699.59;;;25.49;32.32
15670;BME280;18524;45.190;5.732;2023-04-19T14:45:16;98711.72;;;25.40;33.82
15670;BME280;18524;45.190;5.732;2023-04-19T14:50:06;98696.41;;;25.29;34.73
15670;BME280;18524;45.190;5.732;2023-04-19T14:54:57;98693.56;;;25.24;34.07
15670;BME280;18524;45.190;5.732;2023-04-19T14:59:48;98701.22;;;25.09;34.80
15670;BME280;18524;45.190;5.732;2023-04-19T15:04:39;98680.31;;;24.81;34.49
15670;BME280;18524;45.190;5.732;2023-04-19T15:09:29;98680.81;;;24.59;34.37
15670;BME280;18524;45.190;5.732;2023-04-19T15:14:20;98678.56;;;24.56;34.92
15670;BME280;18524;45.190;5.732;2023-04-19T15:19:10;98662.94;;;24.35;34.73
15670;BME280;18524;45.190;5.732;2023-04-19T15:24:01;98671.47;;;24.25;34.87
15670;BME280;18524;45.190;5.732;2023-04-19T15:28:51;98662.97;;;24.10;35.45
15670;BME280;18524;45.190;5.732;2023-04-19T15:33:43;98661.81;;;23.81;37.12
15670;BME280;18524;45.190;5.732;2023-04-19T15:38:33;98659.19;;;23.75;35.26
15670;BME280;18524;45.190;5.732;2023-04-19T15:43:24;98658.38;;;23.74;36.12
15670;BME280;18524;45.190;5.732;2023-04-19T15:48:14;98658.28;;;23.62;34.62
15670;BME280;18524;45.190;5.732;2023-04-19T15:53:06;98665.72;;;23.54;35.07
15670;BME280;18524;45.190;5.732;2023-04-19T15:57:56;98661.78;;;23.31;35.38
15670;BME280;18524;45.190;5.732;2023-04-19T16:02:47;98657.72;;;23.22;34.73
15670;BME280;18524;45.190;5.732;2023-04-19T16:07:37;98666.47;;;23.11;34.40
15670;BME280;18524;45.190;5.732;2023-04-19T16:12:28;98657.50;;;22.92;33.66
15670;BME280;18524;45.190;5.732;2023-04-19T16:17:18;98647.28;;;22.83;35.02
15670;BME280;18524;45.190;5.732;2023-04-19T16:22:08;98648.31;;;22.82;35.34
15670;BME280;18524;45.190;5.732;2023-04-19T16:26:59;98648.56;;;22.67;36.01
15670;BME280;18524;45.190;5.732;2023-04-19T16:31:50;98656.78;;;22.65;35.24
15670;BME280;18524;45.190;5.732;2023-04-19T16:36:40;98651.50;;;22.52;35.72
15670;BME280;18524;45.190;5.732;2023-04-19T16:41:33;98638.00;;;22.40;36.24
15670;BME280;18524;45.190;5.732;2023-04-19T16:46:24;98636.38;;;22.26;37.28
15670;BME280;18524;45.190;5.732;2023-04-19T16:51:14;98641.78;;;22.13;38.55
15670;BME280;18524;45.190;5.732;2023-04-19T16:56:05;98653.09;;;22.08;38.88
15670;BME280;18524;45.190;5.732;2023-04-19T17:00:55;98639.34;;;21.98;38.84
15670;BME280;18524;45.190;5.732;2023-04-19T17:05:47;98628.69;;;21.78;39.97
15670;BME280;18524;45.190;5.732;2023-04-19T17:10:37;98628.28;;;21.75;40.93
15670;BME280;18524;45.190;5.732;2023-04-19T17:15:28;98624.38;;;21.71;41.45
15670;BME280;18524;45.190;5.732;2023-04-19T17:20:18;98617.03;;;21.60;41.82
15670;BME280;18524;45.190;5.732;2023-04-19T17:25:09;98615.16;;;21.53;40.93
15670;BME280;18524;45.190;5.732;2023-04-19T17:29:59;98619.47;;;21.54;41.00
15670;BME280;18524;45.190;5.732;2023-04-19T17:34:49;98614.75;;;21.37;41.73
15670;BME280;18524;45.190;5.732;2023-04-19T17:39:40;98617.66;;;21.29;42.25
15670;BME280;18524;45.190;5.732;2023-04-19T17:44:30;98618.19;;;21.11;42.69
15670;BME280;18524;45.190;5.732;2023-04-19T17:49:21;98623.72;;;21.03;43.58
15670;BME280;18524;45.190;5.732;2023-04-19T17:54:11;98624.75;;;20.95;44.07
15670;BME280;18524;45.190;5.732;2023-04-19T17:59:02;98625.13;;;20.79;43.40
15670;BME280;18524;45.190;5.732;2023-04-19T18:03:53;98633.69;;;20.68;44.37
15670;BME280;18524;45.190;5.732;2023-04-19T18:08:43;98640.25;;;20.58;45.50
15670;BME280;18524;45.190;5.732;2023-04-19T18:13:34;98641.25;;;20.51;44.23
15670;BME280;18524;45.190;5.732;2023-04-19T18:18:25;98639.19;;;20.46;42.95
15670;BME280;18524;45.190;5.732;2023-04-19T18:23:15;98652.88;;;20.43;43.35
15670;BME280;18524;45.190;5.732;2023-04-19T18:28:06;98648.91;;;20.33;44.79
15670;BME280;18524;45.190;5.732;2023-04-19T18:32:56;98654.41;;;20.24;46.43
15670;BME280;18524;45.190;5.732;2023-04-19T18:37:47;98653.34;;;20.19;48.49
15670;BME280;18524;45.190;5.732;2023-04-19T18:42:38;98657.00;;;20.11;49.68
15670;BME280;18524;45.190;5.732;2023-04-19T18:47:29;98660.00;;;20.02;48.59
15670;BME280;18524;45.190;5.732;2023-04-19T18:52:19;98663.59;;;19.87;49.68
15670;BME280;18524;45.190;5.732;2023-04-19T18:57:10;98670.31;;;19.77;49.54
15670;BME280;18524;45.190;5.732;2023-04-19T19:02:00;98673.47;;;19.65;48.58
15670;BME280;18524;45.190;5.732;2023-04-19T19:06:50;98667.84;;;19.54;49.53
15670;BME280;18524;45.190;5.732;2023-04-19T19:11:41;98680.25;;;19.47;50.46
15670;BME280;18524;45.190;5.732;2023-04-19T19:16:32;98684.88;;;19.38;48.55
15670;BME280;18524;45.190;5.732;2023-04-19T19:21:22;98687.03;;;19.28;49.52
15670;BME280;18524;45.190;5.732;2023-04-19T19:26:12;98694.75;;;19.23;51.39
15670;BME280;18524;45.190;5.732;2023-04-19T19:31:03;98701.09;;;19.22;48.84
15670;BME280;18524;45.190;5.732;2023-04-19T19:35:53;98692.91;;;19.02;49.79
15670;BME280;18524;45.190;5.732;2023-04-19T19:40:44;98705.56;;;19.00;50.40
15670;BME280;18524;45.190;5.732;2023-04-19T19:45:34;98705.03;;;18.90;49.11
15670;BME280;18524;45.190;5.732;2023-04-19T19:50:26;98698.19;;;18.81;49.13
15670;BME280;18524;45.190;5.732;2023-04-19T19:55:17;98707.53;;;18.77;50.82
15670;BME280;18524;45.190;5.732;2023-04-19T20:00:09;98707.84;;;18.67;51.65
15670;BME280;18524;45.190;5.732;2023-04-19T20:05:03;98712.91;;;18.62;52.99
15670;BME280;18524;45.190;5.732;2023-04-19T20:09:54;98708.63;;;18.53;54.33
15670;BME280;18524;45.190;5.732;2023-04-19T20:14:44;98702.78;;;18.42;54.55
15670;BME280;18524;45.190;5.732;2023-04-19T20:19:35;98700.25;;;18.34;51.37
15670;BME280;18524;45.190;5.732;2023-04-19T20:24:26;98716.28;;;18.26;53.44
15670;BME280;18524;45.190;5.732;2023-04-19T20:29:17;98711.22;;;18.17;54.97
15670;BME280;18524;45.190;5.732;2023-04-19T20:34:07;98709.28;;;18.10;54.79
15670;BME280;18524;45.190;5.732;2023-04-19T20:38:57;98711.84;;;18.04;53.92
15670;BME280;18524;45.190;5.732;2023-04-19T20:43:50;98716.50;;;17.87;56.95
15670;BME280;18524;45.190;5.732;2023-04-19T20:48:41;98712.63;;;17.75;58.18
15670;BME280;18524;45.190;5.732;2023-04-19T20:53:32;98718.00;;;17.67;59.43
15670;BME280;18524;45.190;5.732;2023-04-19T20:58:23;98711.38;;;17.63;59.80
15670;BME280;18524;45.190;5.732;2023-04-19T21:03:13;98720.59;;;17.52;60.03
15670;BME280;18524;45.190;5.732;2023-04-19T21:08:04;98711.69;;;17.45;61.07
15670;BME280;18524;45.190;5.732;2023-04-19T21:12:54;98715.59;;;17.34;61.47
15670;BME280;18524;45.190;5.732;2023-04-19T21:17:45;98718.22;;;17.34;60.71
15670;BME280;18524;45.190;5.732;2023-04-19T21:22:35;98714.00;;;17.25;61.75
15670;BME280;18524;45.190;5.732;2023-04-19T21:27:25;98719.19;;;17.18;61.25
15670;BME280;18524;45.190;5.732;2023-04-19T21:32:16;98716.59;;;17.10;62.42
15670;BME280;18524;45.190;5.732;2023-04-19T21:37:06;98721.53;;;17.13;59.44
15670;BME280;18524;45.190;5.732;2023-04-19T21:41:56;98722.56;;;17.04;58.34
15670;BME280;18524;45.190;5.732;2023-04-19T21:46:47;98724.44;;;16.96;60.10
15670;BME280;18524;45.190;5.732;2023-04-19T21:51:37;98717.38;;;16.88;59.70
15670;BME280;18524;45.190;5.732;2023-04-19T21:56:28;98720.59;;;16.75;62.94
15670;BME280;18524;45.190;5.732;2023-04-19T22:01:18;98722.28;;;16.60;64.60
15670;BME280;18524;45.190;5.732;2023-04-19T22:06:08;98709.78;;;16.46;66.55
15670;BME280;18524;45.190;5.732;2023-04-19T22:10:59;98711.63;;;16.37;67.48
15670;BME280;18524;45.190;5.732;2023-04-19T22:15:50;98718.22;;;16.33;67.90
15670;BME280;18524;45.190;5.732;2023-04-19T22:20:41;98715.09;;;16.30;67.16
15670;BME280;18524;45.190;5.732;2023-04-19T22:25:32;98718.09;;;16.26;68.46
15670;BME280;18524;45.190;5.732;2023-04-19T22:30:22;98712.66;;;16.20;68.55
15670;BME280;18524;45.190;5.732;2023-04-19T22:35:12;98709.34;;;16.18;68.42
15670;BME280;18524;45.190;5.732;2023-04-19T22:40:03;98720.63;;;16.12;69.86
15670;BME280;18524;45.190;5.732;2023-04-19T22:44:56;98717.19;;;16.03;70.84
15670;BME280;18524;45.190;5.732;2023-04-19T22:49:47;98713.22;;;15.99;69.75
15670;BME280;18524;45.190;5.732;2023-04-19T22:54:38;98714.84;;;15.92;69.03
15670;BME280;18524;45.190;5.732;2023-04-19T22:59:28;98716.03;;;15.81;70.47
15670;BME280;18524;45.190;5.732;2023-04-19T23:04:19;98712.09;;;15.69;71.84
15670;BME280;18524;45.190;5.732;2023-04-19T23:09:09;98706.81;;;15.61;71.01
15670;BME280;18524;45.190;5.732;2023-04-19T23:14:02;98703.63;;;15.49;72.06
15670;BME280;18524;45.190;5.732;2023-04-19T23:18:53;98709.09;;;15.48;72.94
15670;BME280;18524;45.190;5.732;2023-04-19T23:23:44;98707.78;;;15.36;73.18
15670;BME280;18524;45.190;5.732;2023-04-19T23:28:34;98701.13;;;15.23;75.09
15670;BME280;18524;45.190;5.732;2023-04-19T23:33:25;98693.75;;;15.27;74.35
15670;BME280;18524;45.190;5.732;2023-04-19T23:38:15;98690.94;;;15.28;73.45
15670;BME280;18524;45.190;5.732;2023-04-19T23:43:06;98686.94;;;15.08;72.57
15670;BME280;18524;45.190;5.732;2023-04-19T23:47:56;98684.28;;;14.92;73.11
15670;BME280;18524;45.190;5.732;2023-04-19T23:52:46;98680.63;;;14.85;73.55
15670;BME280;18524;45.190;5.732;2023-04-19T23:57:37;98676.97;;;14.78;74.80
